Terminal Aerodrome Forecast
Issued by NWS

Home | Current Version | Previous Version | Graphics & Text | Print | Product List | Glossary On
Versions: 1 2 3 4 5 6 7 8 9 10 11 12 13 14 15 16 17 18
055
FTUS43 KGRB 231140
TAFCWA
TAF
KCWA 231140Z 2312/2412 00000KT P6SM SCT150
     FM231400 VRB03KT P6SM SCT100 BKN200
     FM231800 15007KT P6SM SCT070 BKN100
      TEMPO 2318/2322 -SHRA BKN040
     FM240100 15007KT P6SM SCT040 BKN070
      TEMPO 2402/2406 1SM TSRA BKN025CB
     FM240600 17007KT 6SM SHRA BKN025 OVC040 WS020/21035KT
     FM241100 21008KT P6SM SCT018 BKN025 WS020/21035KT=

USA.gov is the U.S. government's official web portal to all federal, state and local government web resources and services.